Terminal Aerodrome Forecast
Issued by NWS Quad Cities IA IL

Home | Current Version | Previous Version | Text Only | Print | Product List | Glossary On
Versions: 1 2 3 4 5 6 7 8 9 10 11 12 13 14 15
000
FTUS43 KDVN 241120
TAFDBQ
TAF
KDBQ 241120Z 2412/2512 13007KT P6SM -SHRA BKN050
     FM241800 15015KT 3SM BR OVC005 PROB30 2500/2506 3SM -TSRA
      BKN020CB
     FM250600 16012KT 6SM RA BR OVC012=

USA.gov is the U.S. government's official web portal to all federal, state and local government web resources and services.